sensor_id;sensor_type;location;lat;lon;timestamp;pressure;altitude;pressure_sealevel;temperature;humidity
43745;BME280;29359;53.048;8.732;2023-02-14T00:00:47;103814.56;;;3.26;97.53
43745;BME280;29359;53.048;8.732;2023-02-14T00:02:49;103814.41;;;3.23;97.64
43745;BME280;29359;53.048;8.732;2023-02-14T00:04:50;103815.16;;;3.20;97.66
43745;BME280;29359;53.048;8.732;2023-02-14T00:06:52;103821.19;;;3.19;97.70
43745;BME280;29359;53.048;8.732;2023-02-14T00:08:53;103818.41;;;3.16;97.44
43745;BME280;29359;53.048;8.732;2023-02-14T00:10:55;103812.16;;;3.12;97.66
43745;BME280;29359;53.048;8.732;2023-02-14T00:12:57;103817.22;;;3.09;97.43
43745;BME280;29359;53.048;8.732;2023-02-14T00:14:58;103813.63;;;3.07;97.42
43745;BME280;29359;53.048;8.732;2023-02-14T00:17:18;103816.09;;;3.04;97.77
43745;BME280;29359;53.048;8.732;2023-02-14T00:19:20;103824.72;;;3.03;96.94
43745;BME280;29359;53.048;8.732;2023-02-14T00:21:22;103820.25;;;3.01;97.46
43745;BME280;29359;53.048;8.732;2023-02-14T00:23:23;103817.47;;;2.98;97.23
43745;BME280;29359;53.048;8.732;2023-02-14T00:25:25;103810.38;;;2.95;97.21
43745;BME280;29359;53.048;8.732;2023-02-14T00:27:26;103807.53;;;2.91;97.22
43745;BME280;29359;53.048;8.732;2023-02-14T00:29:30;103814.41;;;2.89;97.32
43745;BME280;29359;53.048;8.732;2023-02-14T00:31:32;103811.63;;;2.86;97.23
43745;BME280;29359;53.048;8.732;2023-02-14T00:33:33;103809.78;;;2.83;97.60
43745;BME280;29359;53.048;8.732;2023-02-14T00:35:36;103812.31;;;2.81;97.17
43745;BME280;29359;53.048;8.732;2023-02-14T00:37:38;103805.22;;;2.79;97.40
43745;BME280;29359;53.048;8.732;2023-02-14T00:39:40;103806.94;;;2.78;97.06
43745;BME280;29359;53.048;8.732;2023-02-14T00:41:42;103801.63;;;2.77;97.38
43745;BME280;29359;53.048;8.732;2023-02-14T00:43:48;103798.94;;;2.75;97.17
43745;BME280;29359;53.048;8.732;2023-02-14T00:45:50;103801.47;;;2.74;97.38
43745;BME280;29359;53.048;8.732;2023-02-14T00:47:51;103813.63;;;2.73;97.56
43745;BME280;29359;53.048;8.732;2023-02-14T00:49:53;103810.03;;;2.71;97.27
43745;BME280;29359;53.048;8.732;2023-02-14T00:51:54;103807.34;;;2.70;97.19
43745;BME280;29359;53.048;8.732;2023-02-14T00:53:56;103811.69;;;2.69;97.26
43745;BME280;29359;53.048;8.732;2023-02-14T00:55:57;103804.59;;;2.67;97.16
43745;BME280;29359;53.048;8.732;2023-02-14T00:57:59;103809.81;;;2.67;97.27
43745;BME280;29359;53.048;8.732;2023-02-14T01:00:01;103810.53;;;2.64;97.17
43745;BME280;29359;53.048;8.732;2023-02-14T01:02:02;103806.16;;;2.63;97.14
43745;BME280;29359;53.048;8.732;2023-02-14T01:04:04;103814.78;;;2.62;97.13
43745;BME280;29359;53.048;8.732;2023-02-14T01:06:07;103810.38;;;2.61;96.95
43745;BME280;29359;53.048;8.732;2023-02-14T01:08:08;103806.00;;;2.60;97.18
43745;BME280;29359;53.048;8.732;2023-02-14T01:10:10;103805.16;;;2.61;97.07
43745;BME280;29359;53.048;8.732;2023-02-14T01:12:12;103810.28;;;2.60;97.15
43745;BME280;29359;53.048;8.732;2023-02-14T01:14:14;103805.06;;;2.60;97.13
43745;BME280;29359;53.048;8.732;2023-02-14T01:16:20;103805.88;;;2.59;97.22
43745;BME280;29359;53.048;8.732;2023-02-14T01:18:22;103803.19;;;2.57;96.94
43745;BME280;29359;53.048;8.732;2023-02-14T01:20:24;103802.22;;;2.55;96.75
43745;BME280;29359;53.048;8.732;2023-02-14T01:22:26;103801.31;;;2.55;96.87
43745;BME280;29359;53.048;8.732;2023-02-14T01:24:27;103802.94;;;2.52;97.03
43745;BME280;29359;53.048;8.732;2023-02-14T01:26:29;103807.28;;;2.52;96.76
43745;BME280;29359;53.048;8.732;2023-02-14T01:28:31;103796.75;;;2.50;96.63
43745;BME280;29359;53.048;8.732;2023-02-14T01:30:32;103806.22;;;2.48;96.90
43745;BME280;29359;53.048;8.732;2023-02-14T01:32:34;103801.75;;;2.46;96.77
43745;BME280;29359;53.048;8.732;2023-02-14T01:34:36;103799.88;;;2.43;96.85
43745;BME280;29359;53.048;8.732;2023-02-14T01:36:38;103794.56;;;2.42;96.87
43745;BME280;29359;53.048;8.732;2023-02-14T01:38:40;103796.19;;;2.40;96.85
43745;BME280;29359;53.048;8.732;2023-02-14T01:40:42;103792.63;;;2.38;96.84
43745;BME280;29359;53.048;8.732;2023-02-14T01:42:44;103798.66;;;2.37;96.78
43745;BME280;29359;53.048;8.732;2023-02-14T01:46:50;103785.38;;;2.32;96.68
43745;BME280;29359;53.048;8.732;2023-02-14T01:49:04;103797.50;;;2.32;96.92
43745;BME280;29359;53.048;8.732;2023-02-14T01:51:07;103787.00;;;2.30;97.21
43745;BME280;29359;53.048;8.732;2023-02-14T01:53:12;103792.31;;;2.32;96.96
43745;BME280;29359;53.048;8.732;2023-02-14T01:55:19;103791.31;;;2.30;96.98
43745;BME280;29359;53.048;8.732;2023-02-14T01:57:23;103780.91;;;2.30;96.76
43745;BME280;29359;53.048;8.732;2023-02-14T01:59:32;103783.50;;;2.30;97.02
43745;BME280;29359;53.048;8.732;2023-02-14T02:01:37;103782.53;;;2.28;96.97
43745;BME280;29359;53.048;8.732;2023-02-14T02:03:43;103786.09;;;2.30;97.01
43745;BME280;29359;53.048;8.732;2023-02-14T02:05:49;103787.81;;;2.29;96.59
43745;BME280;29359;53.048;8.732;2023-02-14T02:07:54;103785.13;;;2.28;96.67
43745;BME280;29359;53.048;8.732;2023-02-14T02:09:59;103778.94;;;2.26;96.62
43745;BME280;29359;53.048;8.732;2023-02-14T02:12:02;103775.44;;;2.25;97.07
43745;BME280;29359;53.048;8.732;2023-02-14T02:14:04;103777.97;;;2.24;96.96
43745;BME280;29359;53.048;8.732;2023-02-14T02:18:34;103767.38;;;2.20;97.26
43745;BME280;29359;53.048;8.732;2023-02-14T02:33:06;103769.06;;;2.04;96.77
43745;BME280;29359;53.048;8.732;2023-02-14T02:46:21;103758.81;;;1.91;96.61
43745;BME280;29359;53.048;8.732;2023-02-14T02:48:44;103767.34;;;1.88;96.96
43745;BME280;29359;53.048;8.732;2023-02-14T02:50:52;103771.66;;;1.87;96.83
43745;BME280;29359;53.048;8.732;2023-02-14T02:53:37;103761.16;;;1.86;96.47
43745;BME280;29359;53.048;8.732;2023-02-14T02:58:02;103754.81;;;1.81;96.57
43745;BME280;29359;53.048;8.732;2023-02-14T03:00:07;103752.13;;;1.79;96.64
43745;BME280;29359;53.048;8.732;2023-02-14T03:02:17;103759.84;;;1.78;96.90
43745;BME280;29359;53.048;8.732;2023-02-14T03:04:21;103754.47;;;1.75;96.92
43745;BME280;29359;53.048;8.732;2023-02-14T03:06:44;103751.69;;;1.72;96.66
43745;BME280;29359;53.048;8.732;2023-02-14T03:08:45;103746.38;;;1.70;96.84
43745;BME280;29359;53.048;8.732;2023-02-14T03:10:47;103748.91;;;1.69;96.68
43745;BME280;29359;53.048;8.732;2023-02-14T03:17:29;103740.84;;;1.64;96.68
43745;BME280;29359;53.048;8.732;2023-02-14T03:19:46;103737.25;;;1.62;96.77
43745;BME280;29359;53.048;8.732;2023-02-14T03:24:47;103739.63;;;1.57;96.45
43745;BME280;29359;53.048;8.732;2023-02-14T03:27:17;103729.94;;;1.55;96.66
43745;BME280;29359;53.048;8.732;2023-02-14T03:29:43;103726.44;;;1.54;96.69
43745;BME280;29359;53.048;8.732;2023-02-14T03:31:56;103720.25;;;1.52;96.78
43745;BME280;29359;53.048;8.732;2023-02-14T03:36:45;103720.88;;;1.48;96.83
43745;BME280;29359;53.048;8.732;2023-02-14T03:39:02;103720.06;;;1.49;96.46
43745;BME280;29359;53.048;8.732;2023-02-14T03:41:11;103721.63;;;1.46;97.10
43745;BME280;29359;53.048;8.732;2023-02-14T03:43:21;103721.63;;;1.46;96.70
43745;BME280;29359;53.048;8.732;2023-02-14T03:45:31;103715.50;;;1.45;96.54
43745;BME280;29359;53.048;8.732;2023-02-14T03:47:35;103719.81;;;1.45;96.77
43745;BME280;29359;53.048;8.732;2023-02-14T03:49:43;103717.31;;;1.46;96.82
43745;BME280;29359;53.048;8.732;2023-02-14T03:51:47;103718.84;;;1.43;96.58
43745;BME280;29359;53.048;8.732;2023-02-14T03:53:53;103722.34;;;1.43;96.54
43745;BME280;29359;53.048;8.732;2023-02-14T03:56:25;103711.94;;;1.43;96.82
43745;BME280;29359;53.048;8.732;2023-02-14T03:58:29;103721.38;;;1.41;96.36
43745;BME280;29359;53.048;8.732;2023-02-14T04:00:35;103710.94;;;1.41;96.73
43745;BME280;29359;53.048;8.732;2023-02-14T04:02:42;103709.16;;;1.40;96.73
43745;BME280;29359;53.048;8.732;2023-02-14T04:04:48;103707.38;;;1.39;96.23
43745;BME280;29359;53.048;8.732;2023-02-14T04:06:52;103707.28;;;1.38;96.57
43745;BME280;29359;53.048;8.732;2023-02-14T04:08:53;103707.19;;;1.36;96.21
43745;BME280;29359;53.048;8.732;2023-02-14T04:10:56;103703.63;;;1.34;96.34
43745;BME280;29359;53.048;8.732;2023-02-14T04:13:00;103699.22;;;1.33;96.30
43745;BME280;29359;53.048;8.732;2023-02-14T04:15:02;103696.53;;;1.32;96.44
43745;BME280;29359;53.048;8.732;2023-02-14T04:17:04;103700.94;;;1.33;96.28
43745;BME280;29359;53.048;8.732;2023-02-14T04:19:24;103696.63;;;1.33;96.37
43745;BME280;29359;53.048;8.732;2023-02-14T04:21:26;103695.63;;;1.31;96.24
43745;BME280;29359;53.048;8.732;2023-02-14T04:23:28;103688.66;;;1.30;96.36
43745;BME280;29359;53.048;8.732;2023-02-14T04:25:31;103693.03;;;1.31;96.34
43745;BME280;29359;53.048;8.732;2023-02-14T04:27:32;103699.06;;;1.30;96.08
43745;BME280;29359;53.048;8.732;2023-02-14T04:29:39;103702.34;;;1.27;96.04
43745;BME280;29359;53.048;8.732;2023-02-14T04:31:41;103701.44;;;1.27;96.40
43745;BME280;29359;53.048;8.732;2023-02-14T04:33:43;103703.06;;;1.25;96.43
43745;BME280;29359;53.048;8.732;2023-02-14T04:35:47;103703.97;;;1.25;96.43
43745;BME280;29359;53.048;8.732;2023-02-14T04:37:49;103699.66;;;1.26;96.09
43745;BME280;29359;53.048;8.732;2023-02-14T04:39:50;103698.69;;;1.24;96.16
43745;BME280;29359;53.048;8.732;2023-02-14T04:41:51;103697.69;;;1.22;96.25
43745;BME280;29359;53.048;8.732;2023-02-14T04:43:53;103699.41;;;1.21;95.74
43745;BME280;29359;53.048;8.732;2023-02-14T04:45:54;103695.91;;;1.21;95.79
43745;BME280;29359;53.048;8.732;2023-02-14T04:47:56;103695.00;;;1.20;96.02
43745;BME280;29359;53.048;8.732;2023-02-14T04:49:57;103684.59;;;1.20;95.54
43745;BME280;29359;53.048;8.732;2023-02-14T04:51:59;103691.34;;;1.17;95.62
43745;BME280;29359;53.048;8.732;2023-02-14T04:54:01;103691.19;;;1.14;95.91
43745;BME280;29359;53.048;8.732;2023-02-14T04:56:02;103696.28;;;1.12;95.98
43745;BME280;29359;53.048;8.732;2023-02-14T04:58:04;103693.69;;;1.12;95.90
43745;BME280;29359;53.048;8.732;2023-02-14T05:00:07;103680.59;;;1.11;96.03
43745;BME280;29359;53.048;8.732;2023-02-14T05:02:08;103674.34;;;1.07;96.21
43745;BME280;29359;53.048;8.732;2023-02-14T05:04:10;103676.03;;;1.07;96.02
43745;BME280;29359;53.048;8.732;2023-02-14T05:06:12;103680.34;;;1.06;95.96
43745;BME280;29359;53.048;8.732;2023-02-14T05:08:13;103675.88;;;1.04;96.13
43745;BME280;29359;53.048;8.732;2023-02-14T05:10:15;103672.28;;;1.02;96.26
43745;BME280;29359;53.048;8.732;2023-02-14T05:12:16;103671.31;;;1.00;95.99
43745;BME280;29359;53.048;8.732;2023-02-14T05:14:18;103675.59;;;0.99;96.04
43745;BME280;29359;53.048;8.732;2023-02-14T05:16:19;103673.91;;;1.00;96.21
43745;BME280;29359;53.048;8.732;2023-02-14T05:18:21;103667.91;;;1.01;96.20
43745;BME280;29359;53.048;8.732;2023-02-14T05:20:23;103671.38;;;1.01;95.88
43745;BME280;29359;53.048;8.732;2023-02-14T05:22:24;103666.09;;;1.00;95.77
43745;BME280;29359;53.048;8.732;2023-02-14T05:24:26;103668.69;;;1.00;95.63
43745;BME280;29359;53.048;8.732;2023-02-14T05:26:27;103670.41;;;0.99;95.81
43745;BME280;29359;53.048;8.732;2023-02-14T05:28:29;103665.03;;;0.96;95.42
43745;BME280;29359;53.048;8.732;2023-02-14T05:30:31;103660.63;;;0.95;95.81
43745;BME280;29359;53.048;8.732;2023-02-14T05:32:32;103663.00;;;0.90;95.77
43745;BME280;29359;53.048;8.732;2023-02-14T05:34:34;103657.69;;;0.89;95.28
43745;BME280;29359;53.048;8.732;2023-02-14T05:36:35;103662.81;;;0.87;95.97
43745;BME280;29359;53.048;8.732;2023-02-14T05:38:37;103657.50;;;0.86;95.46
43745;BME280;29359;53.048;8.732;2023-02-14T05:40:39;103659.19;;;0.85;95.70
43745;BME280;29359;53.048;8.732;2023-02-14T05:42:42;103657.41;;;0.84;95.87
43745;BME280;29359;53.048;8.732;2023-02-14T05:44:43;103654.81;;;0.84;95.47
43745;BME280;29359;53.048;8.732;2023-02-14T05:46:45;103657.41;;;0.84;96.01
43745;BME280;29359;53.048;8.732;2023-02-14T05:48:46;103658.31;;;0.85;95.58
43745;BME280;29359;53.048;8.732;2023-02-14T05:50:48;103661.00;;;0.86;95.95
43745;BME280;29359;53.048;8.732;2023-02-14T05:52:49;103663.59;;;0.86;95.96
43745;BME280;29359;53.048;8.732;2023-02-14T05:54:51;103648.91;;;0.87;95.88
43745;BME280;29359;53.048;8.732;2023-02-14T05:56:52;103655.78;;;0.86;95.37
43745;BME280;29359;53.048;8.732;2023-02-14T05:58:54;103655.00;;;0.87;95.40
43745;BME280;29359;53.048;8.732;2023-02-14T06:00:56;103656.81;;;0.88;95.70
43745;BME280;29359;53.048;8.732;2023-02-14T06:02:58;103663.72;;;0.88;95.69
43745;BME280;29359;53.048;8.732;2023-02-14T06:05:00;103665.50;;;0.89;95.76
43745;BME280;29359;53.048;8.732;2023-02-14T06:07:02;103660.28;;;0.89;95.92
43745;BME280;29359;53.048;8.732;2023-02-14T06:09:03;103669.91;;;0.90;95.72
43745;BME280;29359;53.048;8.732;2023-02-14T06:11:05;103669.00;;;0.89;95.90
43745;BME280;29359;53.048;8.732;2023-02-14T06:13:07;103668.09;;;0.89;95.65
43745;BME280;29359;53.048;8.732;2023-02-14T06:15:09;103669.81;;;0.88;95.12
43745;BME280;29359;53.048;8.732;2023-02-14T06:17:10;103674.19;;;0.89;95.36
43745;BME280;29359;53.048;8.732;2023-02-14T06:19:12;103675.91;;;0.89;95.78
43745;BME280;29359;53.048;8.732;2023-02-14T06:21:13;103670.69;;;0.89;95.33
43745;BME280;29359;53.048;8.732;2023-02-14T06:23:15;103676.72;;;0.88;95.74
43745;BME280;29359;53.048;8.732;2023-02-14T06:25:16;103677.59;;;0.88;95.68
43745;BME280;29359;53.048;8.732;2023-02-14T06:27:18;103672.41;;;0.88;95.39
43745;BME280;29359;53.048;8.732;2023-02-14T06:29:19;103676.81;;;0.89;95.65
43745;BME280;29359;53.048;8.732;2023-02-14T06:31:21;103675.00;;;0.88;95.24
43745;BME280;29359;53.048;8.732;2023-02-14T06:33:23;103676.81;;;0.89;95.42
43745;BME280;29359;53.048;8.732;2023-02-14T06:35:24;103677.69;;;0.90;95.50
43745;BME280;29359;53.048;8.732;2023-02-14T06:37:26;103674.19;;;0.89;95.64
43745;BME280;29359;53.048;8.732;2023-02-14T06:39:27;103679.41;;;0.89;95.80
43745;BME280;29359;53.048;8.732;2023-02-14T06:41:29;103668.19;;;0.90;95.67
43745;BME280;29359;53.048;8.732;2023-02-14T06:43:31;103682.09;;;0.91;95.53
43745;BME280;29359;53.048;8.732;2023-02-14T06:45:32;103681.28;;;0.92;95.51
43745;BME280;29359;53.048;8.732;2023-02-14T06:47:34;103676.97;;;0.92;95.69
43745;BME280;29359;53.048;8.732;2023-02-14T06:49:35;103677.88;;;0.93;95.96
43745;BME280;29359;53.048;8.732;2023-02-14T06:51:37;103673.56;;;0.93;95.57
43745;BME280;29359;53.048;8.732;2023-02-14T06:53:38;103679.75;;;0.96;95.54
43745;BME280;29359;53.048;8.732;2023-02-14T06:55:40;103675.44;;;0.96;96.07
43745;BME280;29359;53.048;8.732;2023-02-14T06:57:44;103677.22;;;0.97;95.51
43745;BME280;29359;53.048;8.732;2023-02-14T06:59:45;103671.22;;;0.98;95.99
43745;BME280;29359;53.048;8.732;2023-02-14T07:01:47;103679.09;;;1.00;95.33
43745;BME280;29359;53.048;8.732;2023-02-14T07:03:49;103673.91;;;1.00;95.97
43745;BME280;29359;53.048;8.732;2023-02-14T07:05:51;103668.69;;;1.00;96.08
43745;BME280;29359;53.048;8.732;2023-02-14T07:07:52;103673.09;;;1.01;95.53
43745;BME280;29359;53.048;8.732;2023-02-14T07:09:54;103672.28;;;1.02;95.69
43745;BME280;29359;53.048;8.732;2023-02-14T07:11:55;103672.28;;;1.02;96.00
43745;BME280;29359;53.048;8.732;2023-02-14T07:13:57;103671.47;;;1.03;95.66
43745;BME280;29359;53.048;8.732;2023-02-14T07:15:59;103674.16;;;1.04;95.90
43745;BME280;29359;53.048;8.732;2023-02-14T07:18:00;103669.84;;;1.05;96.16
43745;BME280;29359;53.048;8.732;2023-02-14T07:20:02;103668.97;;;1.04;96.37
43745;BME280;29359;53.048;8.732;2023-02-14T07:22:04;103668.16;;;1.05;96.01
43745;BME280;29359;53.048;8.732;2023-02-14T07:24:06;103669.84;;;1.05;96.08
43745;BME280;29359;53.048;8.732;2023-02-14T07:26:07;103669.94;;;1.06;96.49
43745;BME280;29359;53.048;8.732;2023-02-14T07:28:09;103678.63;;;1.07;96.06
43745;BME280;29359;53.048;8.732;2023-02-14T07:30:10;103670.91;;;1.08;96.17
43745;BME280;29359;53.048;8.732;2023-02-14T07:32:12;103672.72;;;1.09;96.65
43745;BME280;29359;53.048;8.732;2023-02-14T07:34:14;103665.00;;;1.11;96.62
43745;BME280;29359;53.048;8.732;2023-02-14T07:36:15;103672.78;;;1.11;96.58
43745;BME280;29359;53.048;8.732;2023-02-14T07:38:17;103668.56;;;1.13;96.04
43745;BME280;29359;53.048;8.732;2023-02-14T07:40:19;103667.75;;;1.14;96.20
43745;BME280;29359;53.048;8.732;2023-02-14T07:42:20;103661.75;;;1.15;96.38
43745;BME280;29359;53.048;8.732;2023-02-14T07:44:22;103662.72;;;1.17;96.46
43745;BME280;29359;53.048;8.732;2023-02-14T07:46:24;103662.81;;;1.18;96.33
43745;BME280;29359;53.048;8.732;2023-02-14T07:48:25;103663.78;;;1.20;96.83
43745;BME280;29359;53.048;8.732;2023-02-14T07:50:31;103661.28;;;1.22;96.42
43745;BME280;29359;53.048;8.732;2023-02-14T07:52:32;103664.03;;;1.25;97.12
43745;BME280;29359;53.048;8.732;2023-02-14T07:54:34;103663.22;;;1.26;97.17
43745;BME280;29359;53.048;8.732;2023-02-14T07:56:35;103660.72;;;1.27;96.95
43745;BME280;29359;53.048;8.732;2023-02-14T08:00:47;103664.28;;;1.30;96.48
43745;BME280;29359;53.048;8.732;2023-02-14T08:02:49;103666.13;;;1.31;96.63
43745;BME280;29359;53.048;8.732;2023-02-14T08:04:50;103668.00;;;1.33;96.98
43745;BME280;29359;53.048;8.732;2023-02-14T08:06:53;103664.56;;;1.34;96.97
43745;BME280;29359;53.048;8.732;2023-02-14T08:08:54;103662.94;;;1.36;96.86
43745;BME280;29359;53.048;8.732;2023-02-14T08:10:56;103668.25;;;1.38;96.81
43745;BME280;29359;53.048;8.732;2023-02-14T08:12:57;103668.41;;;1.41;97.08
43745;BME280;29359;53.048;8.732;2023-02-14T08:14:59;103671.09;;;1.42;97.19
43745;BME280;29359;53.048;8.732;2023-02-14T08:17:20;103665.16;;;1.45;97.10
43745;BME280;29359;53.048;8.732;2023-02-14T08:19:22;103666.94;;;1.46;96.63
43745;BME280;29359;53.048;8.732;2023-02-14T08:21:23;103671.41;;;1.48;96.84
43745;BME280;29359;53.048;8.732;2023-02-14T08:23:25;103671.41;;;1.48;96.42
43745;BME280;29359;53.048;8.732;2023-02-14T08:25:27;103665.56;;;1.52;96.17
43745;BME280;29359;53.048;8.732;2023-02-14T08:27:29;103670.03;;;1.55;96.44
43745;BME280;29359;53.048;8.732;2023-02-14T08:29:30;103666.72;;;1.57;96.62
43745;BME280;29359;53.048;8.732;2023-02-14T08:31:32;103674.50;;;1.57;96.18
43745;BME280;29359;53.048;8.732;2023-02-14T08:33:36;103670.28;;;1.60;96.25
43745;BME280;29359;53.048;8.732;2023-02-14T08:35:38;103679.06;;;1.62;95.87
43745;BME280;29359;53.048;8.732;2023-02-14T08:37:39;103676.63;;;1.65;95.61
43745;BME280;29359;53.048;8.732;2023-02-14T08:39:41;103674.19;;;1.68;95.89
43745;BME280;29359;53.048;8.732;2023-02-14T08:41:43;103678.66;;;1.70;96.13
43745;BME280;29359;53.048;8.732;2023-02-14T08:43:44;103678.94;;;1.75;96.10
43745;BME280;29359;53.048;8.732;2023-02-14T08:45:46;103680.97;;;1.80;96.21
43745;BME280;29359;53.048;8.732;2023-02-14T08:47:48;103675.13;;;1.84;96.24
43745;BME280;29359;53.048;8.732;2023-02-14T08:49:50;103677.16;;;1.90;96.58
43745;BME280;29359;53.048;8.732;2023-02-14T08:51:51;103675.59;;;1.94;96.97
43745;BME280;29359;53.048;8.732;2023-02-14T08:53:54;103673.97;;;1.96;96.36
43745;BME280;29359;53.048;8.732;2023-02-14T08:56:01;103673.31;;;2.00;95.74
43745;BME280;29359;53.048;8.732;2023-02-14T08:58:03;103678.84;;;2.06;96.00
43745;BME280;29359;53.048;8.732;2023-02-14T09:00:05;103670.28;;;2.08;95.66
43745;BME280;29359;53.048;8.732;2023-02-14T09:02:11;103673.13;;;2.13;95.74
43745;BME280;29359;53.048;8.732;2023-02-14T09:04:13;103676.78;;;2.16;95.52
43745;BME280;29359;53.048;8.732;2023-02-14T09:06:15;103673.56;;;2.20;95.40
43745;BME280;29359;53.048;8.732;2023-02-14T09:08:18;103679.06;;;2.27;95.82
43745;BME280;29359;53.048;8.732;2023-02-14T09:10:19;103670.59;;;2.31;95.66
43745;BME280;29359;53.048;8.732;2023-02-14T09:12:21;103676.94;;;2.36;95.82
43745;BME280;29359;53.048;8.732;2023-02-14T09:14:22;103674.47;;;2.39;95.75
43745;BME280;29359;53.048;8.732;2023-02-14T09:16:24;103668.59;;;2.43;95.81
43745;BME280;29359;53.048;8.732;2023-02-14T09:18:26;103662.78;;;2.48;96.36
43745;BME280;29359;53.048;8.732;2023-02-14T09:20:28;103669.22;;;2.55;96.56
43745;BME280;29359;53.048;8.732;2023-02-14T09:22:29;103659.94;;;2.60;96.75
43745;BME280;29359;53.048;8.732;2023-02-14T09:24:33;103665.44;;;2.66;97.06
43745;BME280;29359;53.048;8.732;2023-02-14T09:26:34;103666.56;;;2.71;97.03
43745;BME280;29359;53.048;8.732;2023-02-14T09:28:39;103666.72;;;2.74;97.54
43745;BME280;29359;53.048;8.732;2023-02-14T09:30:41;103659.63;;;2.72;97.13
43745;BME280;29359;53.048;8.732;2023-02-14T09:32:42;103662.31;;;2.73;96.59
43745;BME280;29359;53.048;8.732;2023-02-14T09:34:44;103658.22;;;2.78;96.13
43745;BME280;29359;53.048;8.732;2023-02-14T09:36:45;103658.53;;;2.84;96.26
43745;BME280;29359;53.048;8.732;2023-02-14T09:39:06;103661.41;;;2.91;96.42
43745;BME280;29359;53.048;8.732;2023-02-14T09:41:11;103662.38;;;2.93;96.39
43745;BME280;29359;53.048;8.732;2023-02-14T09:43:46;103654.84;;;2.99;95.37
43745;BME280;29359;53.048;8.732;2023-02-14T09:45:53;103654.72;;;2.96;94.83
43745;BME280;29359;53.048;8.732;2023-02-14T09:48:04;103654.63;;;2.94;95.90
43745;BME280;29359;53.048;8.732;2023-02-14T09:50:17;103658.28;;;2.98;96.25
43745;BME280;29359;53.048;8.732;2023-02-14T09:52:21;103656.91;;;3.04;96.95
43745;BME280;29359;53.048;8.732;2023-02-14T09:54:28;103657.09;;;3.09;96.43
43745;BME280;29359;53.048;8.732;2023-02-14T09:56:49;103651.34;;;3.16;96.52
43745;BME280;29359;53.048;8.732;2023-02-14T09:59:09;103655.00;;;3.20;96.90
43745;BME280;29359;53.048;8.732;2023-02-14T10:05:29;103659.63;;;3.44;98.36
43745;BME280;29359;53.048;8.732;2023-02-14T10:09:51;103662.09;;;3.59;98.95
43745;BME280;29359;53.048;8.732;2023-02-14T10:11:56;103657.06;;;3.64;98.49
43745;BME280;29359;53.048;8.732;2023-02-14T10:14:10;103660.78;;;3.69;99.46
43745;BME280;29359;53.048;8.732;2023-02-14T10:16:24;103658.50;;;3.76;99.47
43745;BME280;29359;53.048;8.732;2023-02-14T10:18:44;103658.03;;;3.85;100.00
43745;BME280;29359;53.048;8.732;2023-02-14T10:23:01;103658.72;;;3.81;99.01
43745;BME280;29359;53.048;8.732;2023-02-14T10:25:43;103659.41;;;3.77;100.00
43745;BME280;29359;53.048;8.732;2023-02-14T10:27:47;103651.00;;;3.84;100.00
43745;BME280;29359;53.048;8.732;2023-02-14T10:29:50;103653.81;;;3.89;100.00
43745;BME280;29359;53.048;8.732;2023-02-14T10:36:30;103651.41;;;4.13;100.00
43745;BME280;29359;53.048;8.732;2023-02-14T10:38:44;103650.72;;;4.17;100.00
43745;BME280;29359;53.048;8.732;2023-02-14T10:41:07;103654.63;;;4.26;100.00
43745;BME280;29359;53.048;8.732;2023-02-14T10:43:22;103645.59;;;4.39;100.00
43745;BME280;29359;53.048;8.732;2023-02-14T10:45:41;103639.91;;;4.49;100.00
43745;BME280;29359;53.048;8.732;2023-02-14T10:48:16;103640.41;;;4.61;100.00
43745;BME280;29359;53.048;8.732;2023-02-14T10:50:29;103640.06;;;4.74;100.00
43745;BME280;29359;53.048;8.732;2023-02-14T10:52:46;103634.91;;;4.76;100.00
43745;BME280;29359;53.048;8.732;2023-02-14T10:54:54;103629.75;;;4.78;100.00
43745;BME280;29359;53.048;8.732;2023-02-14T10:59:24;103630.00;;;4.84;100.00
43745;BME280;29359;53.048;8.732;2023-02-14T11:01:27;103635.72;;;4.96;100.00
43745;BME280;29359;53.048;8.732;2023-02-14T11:03:29;103624.78;;;5.06;100.00
43745;BME280;29359;53.048;8.732;2023-02-14T11:05:43;103628.63;;;5.16;100.00
43745;BME280;29359;53.048;8.732;2023-02-14T11:07:47;103624.50;;;5.21;100.00
43745;BME280;29359;53.048;8.732;2023-02-14T11:09:49;103616.75;;;5.24;100.00
43745;BME280;29359;53.048;8.732;2023-02-14T11:11:56;103613.44;;;5.28;100.00
43745;BME280;29359;53.048;8.732;2023-02-14T11:14:28;103613.72;;;5.35;100.00
43745;BME280;29359;53.048;8.732;2023-02-14T11:16:35;103610.94;;;5.55;100.00
43745;BME280;29359;53.048;8.732;2023-02-14T11:18:40;103607.38;;;5.77;100.00
43745;BME280;29359;53.048;8.732;2023-02-14T11:20:41;103609.63;;;5.90;100.00
43745;BME280;29359;53.048;8.732;2023-02-14T11:22:43;103607.81;;;5.89;99.74
43745;BME280;29359;53.048;8.732;2023-02-14T11:24:44;103611.22;;;5.86;99.07
43745;BME280;29359;53.048;8.732;2023-02-14T11:26:49;103604.44;;;5.91;99.00
43745;BME280;29359;53.048;8.732;2023-02-14T11:28:56;103602.03;;;5.97;98.31
43745;BME280;29359;53.048;8.732;2023-02-14T11:30:58;103593.53;;;6.05;98.35
43745;BME280;29359;53.048;8.732;2023-02-14T11:33:01;103592.09;;;5.89;96.96
43745;BME280;29359;53.048;8.732;2023-02-14T11:35:07;103595.38;;;5.83;96.67
43745;BME280;29359;53.048;8.732;2023-02-14T11:39:29;103592.59;;;6.03;97.98
43745;BME280;29359;53.048;8.732;2023-02-14T11:41:53;103589.38;;;6.10;97.16
43745;BME280;29359;53.048;8.732;2023-02-14T11:44:13;103588.00;;;6.21;97.25
43745;BME280;29359;53.048;8.732;2023-02-14T11:48:26;103573.84;;;6.43;96.41
43745;BME280;29359;53.048;8.732;2023-02-14T11:50:39;103576.31;;;6.38;93.61
43745;BME280;29359;53.048;8.732;2023-02-14T11:52:53;103570.34;;;6.42;91.36
43745;BME280;29359;53.048;8.732;2023-02-14T11:54:56;103573.16;;;6.48;90.21
43745;BME280;29359;53.048;8.732;2023-02-14T11:59:24;103560.50;;;6.90;90.15
43745;BME280;29359;53.048;8.732;2023-02-14T12:01:30;103563.56;;;7.04;90.17
43745;BME280;29359;53.048;8.732;2023-02-14T12:03:38;103561.25;;;7.15;90.59
43745;BME280;29359;53.048;8.732;2023-02-14T12:05:46;103557.72;;;7.43;91.93